Terminal Aerodrome Forecast
Issued by NWS

Home | Current Version | Previous Version | Text Only | Print | Product List | Glossary On
Versions: 1 2 3 4 5 6 7 8 9 10 11 12 13 14 15 16 17 18 19 20 21 22 23 24 25 26 27 28 29 30 31 32 33 34 35 36 37 38 39 40 41 42 43 44 45
000
FTUS42 KRAH 051730
TAFRWI
TAF
KRWI 051730Z 0518/0618 21009KT P6SM SCT040 SCT150
      TEMPO 0518/0520 BKN040
     FM052000 20009KT P6SM VCTS SCT045CB
      TEMPO 0521/0524 VRB20G35KT 2SM TSRA BR SCT018 BKN025CB
     FM060100 19005KT P6SM SCT025
     FM060900 19004KT 4SM BR SCT004
      TEMPO 0610/0613 1 1/2SM BR BKN003
     FM061600 20009KT P6SM SCT030=

USA.gov is the U.S. government's official web portal to all federal, state and local government web resources and services.